sensor_id;sensor_type;location;lat;lon;timestamp;P1;durP1;ratioP1;P2;durP2;ratioP2
35188;SDS011;21762;54.480;18.556;2022-10-15T00:01:27;80.60;;;40.78;;
35188;SDS011;21762;54.480;18.556;2022-10-15T00:03:56;81.35;;;41.40;;
35188;SDS011;21762;54.480;18.556;2022-10-15T00:06:24;84.97;;;42.53;;
35188;SDS011;21762;54.480;18.556;2022-10-15T00:08:52;79.82;;;40.95;;
35188;SDS011;21762;54.480;18.556;2022-10-15T00:11:22;81.40;;;41.30;;
35188;SDS011;21762;54.480;18.556;2022-10-15T00:13:53;90.65;;;43.65;;
35188;SDS011;21762;54.480;18.556;2022-10-15T00:16:26;85.32;;;42.00;;
35188;SDS011;21762;54.480;18.556;2022-10-15T00:18:56;85.63;;;43.50;;
35188;SDS011;21762;54.480;18.556;2022-10-15T00:21:25;93.53;;;44.17;;
35188;SDS011;21762;54.480;18.556;2022-10-15T00:23:54;85.50;;;43.40;;
35188;SDS011;21762;54.480;18.556;2022-10-15T00:26:23;92.47;;;42.58;;
35188;SDS011;21762;54.480;18.556;2022-10-15T00:28:53;86.22;;;44.00;;
35188;SDS011;21762;54.480;18.556;2022-10-15T00:31:23;82.68;;;41.25;;
35188;SDS011;21762;54.480;18.556;2022-10-15T00:33:54;80.80;;;42.95;;
35188;SDS011;21762;54.480;18.556;2022-10-15T00:36:23;83.63;;;41.00;;
35188;SDS011;21762;54.480;18.556;2022-10-15T00:38:53;92.15;;;43.38;;
35188;SDS011;21762;54.480;18.556;2022-10-15T00:41:22;93.07;;;44.53;;
35188;SDS011;21762;54.480;18.556;2022-10-15T00:43:51;106.35;;;47.42;;
35188;SDS011;21762;54.480;18.556;2022-10-15T00:46:22;97.00;;;46.60;;
35188;SDS011;21762;54.480;18.556;2022-10-15T00:48:52;88.53;;;44.97;;
35188;SDS011;21762;54.480;18.556;2022-10-15T00:51:24;92.53;;;44.58;;
35188;SDS011;21762;54.480;18.556;2022-10-15T00:53:54;86.03;;;43.45;;
35188;SDS011;21762;54.480;18.556;2022-10-15T00:56:23;79.35;;;41.97;;
35188;SDS011;21762;54.480;18.556;2022-10-15T00:58:53;79.75;;;40.03;;
35188;SDS011;21762;54.480;18.556;2022-10-15T01:01:22;82.45;;;43.63;;
35188;SDS011;21762;54.480;18.556;2022-10-15T01:03:55;86.78;;;42.85;;
35188;SDS011;21762;54.480;18.556;2022-10-15T01:06:24;79.13;;;41.70;;
35188;SDS011;21762;54.480;18.556;2022-10-15T01:08:52;77.63;;;42.00;;
35188;SDS011;21762;54.480;18.556;2022-10-15T01:11:25;72.78;;;41.58;;
35188;SDS011;21762;54.480;18.556;2022-10-15T01:14:05;81.07;;;41.67;;
35188;SDS011;21762;54.480;18.556;2022-10-15T01:16:39;71.53;;;38.85;;
35188;SDS011;21762;54.480;18.556;2022-10-15T01:19:16;77.95;;;40.40;;
35188;SDS011;21762;54.480;18.556;2022-10-15T01:21:55;80.32;;;40.40;;
35188;SDS011;21762;54.480;18.556;2022-10-15T01:24:43;78.05;;;40.25;;
35188;SDS011;21762;54.480;18.556;2022-10-15T01:27:19;75.80;;;40.67;;
35188;SDS011;21762;54.480;18.556;2022-10-15T01:29:57;78.80;;;39.95;;
35188;SDS011;21762;54.480;18.556;2022-10-15T01:32:33;74.55;;;39.47;;
35188;SDS011;21762;54.480;18.556;2022-10-15T01:35:04;73.30;;;39.80;;
35188;SDS011;21762;54.480;18.556;2022-10-15T01:37:38;78.75;;;40.42;;
35188;SDS011;21762;54.480;18.556;2022-10-15T01:40:10;79.05;;;41.63;;
35188;SDS011;21762;54.480;18.556;2022-10-15T01:42:43;79.82;;;41.83;;
35188;SDS011;21762;54.480;18.556;2022-10-15T01:45:15;82.28;;;42.95;;
35188;SDS011;21762;54.480;18.556;2022-10-15T01:48:10;87.35;;;41.45;;
35188;SDS011;21762;54.480;18.556;2022-10-15T01:50:42;80.03;;;40.88;;
35188;SDS011;21762;54.480;18.556;2022-10-15T01:53:12;78.43;;;42.23;;
35188;SDS011;21762;54.480;18.556;2022-10-15T01:55:42;81.55;;;42.05;;
35188;SDS011;21762;54.480;18.556;2022-10-15T01:58:12;88.25;;;43.38;;
35188;SDS011;21762;54.480;18.556;2022-10-15T02:00:41;75.65;;;41.10;;
35188;SDS011;21762;54.480;18.556;2022-10-15T02:03:11;84.38;;;43.70;;
35188;SDS011;21762;54.480;18.556;2022-10-15T02:05:41;84.88;;;42.83;;
35188;SDS011;21762;54.480;18.556;2022-10-15T02:08:15;82.80;;;41.47;;
35188;SDS011;21762;54.480;18.556;2022-10-15T02:10:52;80.97;;;40.83;;
35188;SDS011;21762;54.480;18.556;2022-10-15T02:13:26;79.75;;;41.00;;
35188;SDS011;21762;54.480;18.556;2022-10-15T02:16:01;81.13;;;39.97;;
35188;SDS011;21762;54.480;18.556;2022-10-15T02:18:37;85.35;;;43.80;;
35188;SDS011;21762;54.480;18.556;2022-10-15T02:21:08;88.70;;;45.70;;
35188;SDS011;21762;54.480;18.556;2022-10-15T02:23:38;82.03;;;43.22;;
35188;SDS011;21762;54.480;18.556;2022-10-15T02:26:10;79.75;;;42.58;;
35188;SDS011;21762;54.480;18.556;2022-10-15T02:28:41;81.32;;;41.70;;
35188;SDS011;21762;54.480;18.556;2022-10-15T02:31:11;80.82;;;40.65;;
35188;SDS011;21762;54.480;18.556;2022-10-15T02:33:42;77.47;;;40.75;;
35188;SDS011;21762;54.480;18.556;2022-10-15T02:36:12;78.22;;;41.95;;
35188;SDS011;21762;54.480;18.556;2022-10-15T02:38:41;81.68;;;40.90;;
35188;SDS011;21762;54.480;18.556;2022-10-15T02:41:10;82.43;;;41.50;;
35188;SDS011;21762;54.480;18.556;2022-10-15T02:43:39;82.47;;;41.20;;
35188;SDS011;21762;54.480;18.556;2022-10-15T02:46:13;79.88;;;41.97;;
35188;SDS011;21762;54.480;18.556;2022-10-15T02:48:44;80.63;;;39.60;;
35188;SDS011;21762;54.480;18.556;2022-10-15T02:51:16;71.18;;;38.03;;
35188;SDS011;21762;54.480;18.556;2022-10-15T02:53:44;72.45;;;39.85;;
35188;SDS011;21762;54.480;18.556;2022-10-15T02:56:12;74.47;;;40.08;;
35188;SDS011;21762;54.480;18.556;2022-10-15T02:58:40;77.03;;;40.97;;
35188;SDS011;21762;54.480;18.556;2022-10-15T03:01:08;83.63;;;42.55;;
35188;SDS011;21762;54.480;18.556;2022-10-15T03:03:37;83.75;;;43.63;;
35188;SDS011;21762;54.480;18.556;2022-10-15T03:06:06;82.22;;;41.83;;
35188;SDS011;21762;54.480;18.556;2022-10-15T03:08:36;81.00;;;43.20;;
35188;SDS011;21762;54.480;18.556;2022-10-15T03:11:05;75.65;;;38.33;;
35188;SDS011;21762;54.480;18.556;2022-10-15T03:13:34;81.13;;;43.03;;
35188;SDS011;21762;54.480;18.556;2022-10-15T03:16:03;84.35;;;41.67;;
35188;SDS011;21762;54.480;18.556;2022-10-15T03:18:33;83.03;;;43.08;;
35188;SDS011;21762;54.480;18.556;2022-10-15T03:21:04;79.03;;;41.53;;
35188;SDS011;21762;54.480;18.556;2022-10-15T03:23:33;90.78;;;46.42;;
35188;SDS011;21762;54.480;18.556;2022-10-15T03:26:09;83.63;;;44.70;;
35188;SDS011;21762;54.480;18.556;2022-10-15T03:28:37;85.80;;;44.90;;
35188;SDS011;21762;54.480;18.556;2022-10-15T03:31:05;76.60;;;41.28;;
35188;SDS011;21762;54.480;18.556;2022-10-15T03:33:35;79.45;;;40.38;;
35188;SDS011;21762;54.480;18.556;2022-10-15T03:36:04;83.28;;;42.67;;
35188;SDS011;21762;54.480;18.556;2022-10-15T03:38:35;81.72;;;43.28;;
35188;SDS011;21762;54.480;18.556;2022-10-15T03:41:03;90.88;;;42.85;;
35188;SDS011;21762;54.480;18.556;2022-10-15T03:43:37;88.30;;;42.85;;
35188;SDS011;21762;54.480;18.556;2022-10-15T03:46:06;84.93;;;41.30;;
35188;SDS011;21762;54.480;18.556;2022-10-15T03:48:38;85.68;;;41.58;;
35188;SDS011;21762;54.480;18.556;2022-10-15T03:51:09;89.15;;;41.85;;
35188;SDS011;21762;54.480;18.556;2022-10-15T03:56:10;80.28;;;41.00;;
35188;SDS011;21762;54.480;18.556;2022-10-15T03:58:39;85.85;;;41.17;;
35188;SDS011;21762;54.480;18.556;2022-10-15T04:01:14;79.60;;;41.30;;
35188;SDS011;21762;54.480;18.556;2022-10-15T04:03:45;84.78;;;40.40;;
35188;SDS011;21762;54.480;18.556;2022-10-15T04:06:16;84.70;;;41.85;;
35188;SDS011;21762;54.480;18.556;2022-10-15T04:08:46;87.60;;;42.15;;
35188;SDS011;21762;54.480;18.556;2022-10-15T04:11:21;76.72;;;40.28;;
35188;SDS011;21762;54.480;18.556;2022-10-15T04:13:59;88.88;;;44.22;;
35188;SDS011;21762;54.480;18.556;2022-10-15T04:16:29;83.38;;;41.42;;
35188;SDS011;21762;54.480;18.556;2022-10-15T04:19:01;88.15;;;43.30;;
35188;SDS011;21762;54.480;18.556;2022-10-15T04:21:30;78.65;;;40.42;;
35188;SDS011;21762;54.480;18.556;2022-10-15T04:24:02;91.72;;;43.97;;
35188;SDS011;21762;54.480;18.556;2022-10-15T04:26:39;102.53;;;47.92;;
35188;SDS011;21762;54.480;18.556;2022-10-15T04:29:07;98.13;;;46.33;;
35188;SDS011;21762;54.480;18.556;2022-10-15T04:31:35;83.63;;;43.67;;
35188;SDS011;21762;54.480;18.556;2022-10-15T04:34:04;100.07;;;47.75;;
35188;SDS011;21762;54.480;18.556;2022-10-15T04:36:32;105.22;;;49.80;;
35188;SDS011;21762;54.480;18.556;2022-10-15T04:39:10;98.70;;;46.53;;
35188;SDS011;21762;54.480;18.556;2022-10-15T04:41:41;97.80;;;45.53;;
35188;SDS011;21762;54.480;18.556;2022-10-15T04:44:17;100.85;;;47.70;;
35188;SDS011;21762;54.480;18.556;2022-10-15T04:46:53;96.38;;;45.10;;
35188;SDS011;21762;54.480;18.556;2022-10-15T04:49:29;99.10;;;46.45;;
35188;SDS011;21762;54.480;18.556;2022-10-15T04:51:59;110.18;;;50.83;;
35188;SDS011;21762;54.480;18.556;2022-10-15T04:54:33;102.13;;;46.25;;
35188;SDS011;21762;54.480;18.556;2022-10-15T04:57:03;93.15;;;46.72;;
35188;SDS011;21762;54.480;18.556;2022-10-15T04:59:31;102.57;;;48.42;;
35188;SDS011;21762;54.480;18.556;2022-10-15T05:02:40;102.78;;;46.42;;
35188;SDS011;21762;54.480;18.556;2022-10-15T05:05:35;110.20;;;49.15;;
35188;SDS011;21762;54.480;18.556;2022-10-15T05:08:04;106.22;;;47.78;;
35188;SDS011;21762;54.480;18.556;2022-10-15T05:10:48;104.35;;;48.40;;
35188;SDS011;21762;54.480;18.556;2022-10-15T05:13:16;114.72;;;49.70;;
35188;SDS011;21762;54.480;18.556;2022-10-15T05:15:44;126.03;;;52.03;;
35188;SDS011;21762;54.480;18.556;2022-10-15T05:18:12;109.72;;;48.83;;
35188;SDS011;21762;54.480;18.556;2022-10-15T05:20:48;108.90;;;51.58;;
35188;SDS011;21762;54.480;18.556;2022-10-15T05:23:18;124.68;;;53.28;;
35188;SDS011;21762;54.480;18.556;2022-10-15T05:26:09;127.97;;;53.38;;
35188;SDS011;21762;54.480;18.556;2022-10-15T05:28:39;120.03;;;52.78;;
35188;SDS011;21762;54.480;18.556;2022-10-15T05:31:20;120.72;;;52.10;;
35188;SDS011;21762;54.480;18.556;2022-10-15T05:33:54;134.43;;;52.75;;
35188;SDS011;21762;54.480;18.556;2022-10-15T05:36:30;141.20;;;54.33;;
35188;SDS011;21762;54.480;18.556;2022-10-15T05:38:59;132.75;;;54.42;;
35188;SDS011;21762;54.480;18.556;2022-10-15T05:41:33;132.98;;;55.65;;
35188;SDS011;21762;54.480;18.556;2022-10-15T05:44:04;128.35;;;54.80;;
35188;SDS011;21762;54.480;18.556;2022-10-15T05:46:32;131.35;;;53.95;;
35188;SDS011;21762;54.480;18.556;2022-10-15T05:49:01;128.40;;;54.38;;
35188;SDS011;21762;54.480;18.556;2022-10-15T05:51:39;126.85;;;53.55;;
35188;SDS011;21762;54.480;18.556;2022-10-15T05:54:15;137.38;;;55.35;;
35188;SDS011;21762;54.480;18.556;2022-10-15T05:56:44;131.43;;;55.00;;
35188;SDS011;21762;54.480;18.556;2022-10-15T05:59:12;133.23;;;55.45;;
35188;SDS011;21762;54.480;18.556;2022-10-15T06:01:40;140.68;;;57.42;;
35188;SDS011;21762;54.480;18.556;2022-10-15T06:04:09;135.73;;;57.17;;
35188;SDS011;21762;54.480;18.556;2022-10-15T06:06:37;143.70;;;59.58;;
35188;SDS011;21762;54.480;18.556;2022-10-15T06:09:05;131.00;;;56.75;;
35188;SDS011;21762;54.480;18.556;2022-10-15T06:11:34;148.48;;;58.20;;
35188;SDS011;21762;54.480;18.556;2022-10-15T06:14:04;131.82;;;56.58;;
35188;SDS011;21762;54.480;18.556;2022-10-15T06:16:32;135.57;;;56.53;;
35188;SDS011;21762;54.480;18.556;2022-10-15T06:19:00;130.32;;;55.50;;
35188;SDS011;21762;54.480;18.556;2022-10-15T06:21:28;128.40;;;54.85;;
35188;SDS011;21762;54.480;18.556;2022-10-15T06:23:56;129.95;;;55.83;;
35188;SDS011;21762;54.480;18.556;2022-10-15T06:26:24;123.20;;;55.88;;
35188;SDS011;21762;54.480;18.556;2022-10-15T06:28:52;117.63;;;54.05;;
35188;SDS011;21762;54.480;18.556;2022-10-15T06:31:22;129.52;;;55.50;;
35188;SDS011;21762;54.480;18.556;2022-10-15T06:33:50;124.00;;;52.97;;
35188;SDS011;21762;54.480;18.556;2022-10-15T06:36:18;123.15;;;51.92;;
35188;SDS011;21762;54.480;18.556;2022-10-15T06:38:49;117.60;;;54.07;;
35188;SDS011;21762;54.480;18.556;2022-10-15T06:41:18;127.18;;;54.67;;
35188;SDS011;21762;54.480;18.556;2022-10-15T06:43:57;125.05;;;52.38;;
35188;SDS011;21762;54.480;18.556;2022-10-15T06:46:26;136.57;;;57.47;;
35188;SDS011;21762;54.480;18.556;2022-10-15T06:48:54;132.63;;;56.60;;
35188;SDS011;21762;54.480;18.556;2022-10-15T06:51:22;134.07;;;53.40;;
35188;SDS011;21762;54.480;18.556;2022-10-15T06:53:53;135.07;;;56.55;;
35188;SDS011;21762;54.480;18.556;2022-10-15T06:56:21;143.82;;;57.63;;
35188;SDS011;21762;54.480;18.556;2022-10-15T06:58:50;142.80;;;57.13;;
35188;SDS011;21762;54.480;18.556;2022-10-15T07:01:18;155.57;;;59.03;;
35188;SDS011;21762;54.480;18.556;2022-10-15T07:03:49;157.07;;;60.63;;
35188;SDS011;21762;54.480;18.556;2022-10-15T07:06:17;157.05;;;58.80;;
35188;SDS011;21762;54.480;18.556;2022-10-15T07:08:45;154.32;;;60.25;;
35188;SDS011;21762;54.480;18.556;2022-10-15T07:11:13;150.55;;;58.55;;
35188;SDS011;21762;54.480;18.556;2022-10-15T07:13:41;157.95;;;58.70;;
35188;SDS011;21762;54.480;18.556;2022-10-15T07:16:10;158.35;;;60.55;;
35188;SDS011;21762;54.480;18.556;2022-10-15T07:18:39;152.43;;;59.35;;
35188;SDS011;21762;54.480;18.556;2022-10-15T07:21:08;161.10;;;61.58;;
35188;SDS011;21762;54.480;18.556;2022-10-15T07:23:41;139.02;;;58.85;;
35188;SDS011;21762;54.480;18.556;2022-10-15T07:26:09;149.20;;;59.70;;
35188;SDS011;21762;54.480;18.556;2022-10-15T07:28:37;135.63;;;55.78;;
35188;SDS011;21762;54.480;18.556;2022-10-15T07:31:06;127.43;;;54.13;;
35188;SDS011;21762;54.480;18.556;2022-10-15T07:33:34;138.23;;;56.67;;
35188;SDS011;21762;54.480;18.556;2022-10-15T07:36:03;127.30;;;54.78;;
35188;SDS011;21762;54.480;18.556;2022-10-15T07:38:33;121.53;;;50.38;;
35188;SDS011;21762;54.480;18.556;2022-10-15T07:41:02;116.97;;;50.33;;
35188;SDS011;21762;54.480;18.556;2022-10-15T07:43:38;107.15;;;50.42;;
35188;SDS011;21762;54.480;18.556;2022-10-15T07:46:07;107.22;;;52.80;;
35188;SDS011;21762;54.480;18.556;2022-10-15T07:48:35;112.20;;;53.60;;
35188;SDS011;21762;54.480;18.556;2022-10-15T07:51:04;101.78;;;50.10;;
35188;SDS011;21762;54.480;18.556;2022-10-15T07:53:34;100.97;;;47.42;;
35188;SDS011;21762;54.480;18.556;2022-10-15T07:56:03;94.55;;;48.00;;
35188;SDS011;21762;54.480;18.556;2022-10-15T07:58:33;91.28;;;46.28;;
35188;SDS011;21762;54.480;18.556;2022-10-15T08:01:03;97.97;;;48.28;;
35188;SDS011;21762;54.480;18.556;2022-10-15T08:03:32;100.97;;;49.40;;
35188;SDS011;21762;54.480;18.556;2022-10-15T08:06:01;100.85;;;48.75;;
35188;SDS011;21762;54.480;18.556;2022-10-15T08:08:30;98.00;;;49.42;;
35188;SDS011;21762;54.480;18.556;2022-10-15T08:11:04;93.97;;;48.30;;
35188;SDS011;21762;54.480;18.556;2022-10-15T08:13:33;96.18;;;47.47;;
35188;SDS011;21762;54.480;18.556;2022-10-15T08:16:01;88.72;;;47.47;;
35188;SDS011;21762;54.480;18.556;2022-10-15T08:18:30;92.22;;;47.42;;
35188;SDS011;21762;54.480;18.556;2022-10-15T08:20:58;92.60;;;45.63;;
35188;SDS011;21762;54.480;18.556;2022-10-15T08:23:27;88.05;;;43.22;;
35188;SDS011;21762;54.480;18.556;2022-10-15T08:25:56;89.20;;;46.00;;
35188;SDS011;21762;54.480;18.556;2022-10-15T08:28:25;87.63;;;45.35;;
35188;SDS011;21762;54.480;18.556;2022-10-15T08:30:55;85.47;;;44.83;;
35188;SDS011;21762;54.480;18.556;2022-10-15T08:33:25;77.22;;;42.75;;
35188;SDS011;21762;54.480;18.556;2022-10-15T08:35:54;81.90;;;42.08;;
35188;SDS011;21762;54.480;18.556;2022-10-15T08:38:22;86.60;;;44.60;;
35188;SDS011;21762;54.480;18.556;2022-10-15T08:40:52;82.45;;;45.28;;
35188;SDS011;21762;54.480;18.556;2022-10-15T08:43:22;85.60;;;44.15;;
35188;SDS011;21762;54.480;18.556;2022-10-15T08:45:54;79.55;;;41.88;;
35188;SDS011;21762;54.480;18.556;2022-10-15T08:48:27;73.57;;;40.97;;
35188;SDS011;21762;54.480;18.556;2022-10-15T08:50:58;78.75;;;41.75;;
35188;SDS011;21762;54.480;18.556;2022-10-15T08:53:28;75.35;;;38.85;;
35188;SDS011;21762;54.480;18.556;2022-10-15T08:56:03;72.78;;;40.17;;
35188;SDS011;21762;54.480;18.556;2022-10-15T08:58:40;71.28;;;38.72;;
35188;SDS011;21762;54.480;18.556;2022-10-15T09:01:15;69.03;;;38.47;;
35188;SDS011;21762;54.480;18.556;2022-10-15T09:03:50;70.32;;;37.78;;
35188;SDS011;21762;54.480;18.556;2022-10-15T09:06:25;75.78;;;38.92;;
35188;SDS011;21762;54.480;18.556;2022-10-15T09:08:57;74.77;;;37.43;;
35188;SDS011;21762;54.480;18.556;2022-10-15T09:11:29;65.30;;;35.88;;
35188;SDS011;21762;54.480;18.556;2022-10-15T09:14:06;61.78;;;35.50;;
35188;SDS011;21762;54.480;18.556;2022-10-15T09:19:10;60.40;;;33.20;;
35188;SDS011;21762;54.480;18.556;2022-10-15T09:21:40;61.10;;;34.67;;
35188;SDS011;21762;54.480;18.556;2022-10-15T09:24:09;68.78;;;36.08;;
35188;SDS011;21762;54.480;18.556;2022-10-15T09:26:48;65.05;;;35.38;;
35188;SDS011;21762;54.480;18.556;2022-10-15T09:29:21;64.60;;;35.65;;
35188;SDS011;21762;54.480;18.556;2022-10-15T09:32:02;64.43;;;35.38;;
35188;SDS011;21762;54.480;18.556;2022-10-15T09:34:38;62.78;;;32.70;;
35188;SDS011;21762;54.480;18.556;2022-10-15T09:37:13;60.83;;;33.55;;
35188;SDS011;21762;54.480;18.556;2022-10-15T09:45:22;59.28;;;32.38;;
35188;SDS011;21762;54.480;18.556;2022-10-15T09:47:57;54.35;;;32.63;;
35188;SDS011;21762;54.480;18.556;2022-10-15T09:50:27;62.13;;;35.03;;
35188;SDS011;21762;54.480;18.556;2022-10-15T09:53:04;58.67;;;33.33;;
35188;SDS011;21762;54.480;18.556;2022-10-15T09:55:40;59.60;;;33.85;;
35188;SDS011;21762;54.480;18.556;2022-10-15T09:58:11;61.22;;;33.42;;
35188;SDS011;21762;54.480;18.556;2022-10-15T10:00:51;57.40;;;32.30;;
35188;SDS011;21762;54.480;18.556;2022-10-15T10:03:22;60.25;;;31.10;;
35188;SDS011;21762;54.480;18.556;2022-10-15T10:05:57;52.78;;;31.00;;
35188;SDS011;21762;54.480;18.556;2022-10-15T10:08:28;52.83;;;29.95;;
35188;SDS011;21762;54.480;18.556;2022-10-15T10:10:59;54.75;;;32.58;;
35188;SDS011;21762;54.480;18.556;2022-10-15T10:13:29;52.40;;;29.90;;
35188;SDS011;21762;54.480;18.556;2022-10-15T10:16:01;52.50;;;28.92;;
35188;SDS011;21762;54.480;18.556;2022-10-15T10:18:34;48.20;;;27.55;;
35188;SDS011;21762;54.480;18.556;2022-10-15T10:21:03;46.72;;;25.80;;
35188;SDS011;21762;54.480;18.556;2022-10-15T10:23:36;46.92;;;23.90;;
35188;SDS011;21762;54.480;18.556;2022-10-15T10:26:05;43.95;;;24.85;;
35188;SDS011;21762;54.480;18.556;2022-10-15T10:28:36;42.65;;;24.45;;
35188;SDS011;21762;54.480;18.556;2022-10-15T10:31:09;41.45;;;22.73;;
35188;SDS011;21762;54.480;18.556;2022-10-15T10:33:43;43.58;;;23.23;;
35188;SDS011;21762;54.480;18.556;2022-10-15T10:36:20;40.50;;;24.02;;
35188;SDS011;21762;54.480;18.556;2022-10-15T10:38:55;41.80;;;23.48;;
35188;SDS011;21762;54.480;18.556;2022-10-15T10:41:25;38.97;;;20.98;;
35188;SDS011;21762;54.480;18.556;2022-10-15T10:44:18;37.92;;;22.48;;
35188;SDS011;21762;54.480;18.556;2022-10-15T10:49:40;38.75;;;22.02;;
35188;SDS011;21762;54.480;18.556;2022-10-15T10:52:20;36.37;;;20.93;;
35188;SDS011;21762;54.480;18.556;2022-10-15T10:54:52;38.60;;;22.27;;
35188;SDS011;21762;54.480;18.556;2022-10-15T10:57:26;40.38;;;22.33;;
35188;SDS011;21762;54.480;18.556;2022-10-15T10:59:59;38.85;;;22.50;;
35188;SDS011;21762;54.480;18.556;2022-10-15T11:02:32;41.45;;;23.55;;
35188;SDS011;21762;54.480;18.556;2022-10-15T11:05:06;42.40;;;26.17;;
35188;SDS011;21762;54.480;18.556;2022-10-15T11:07:36;44.53;;;24.63;;
35188;SDS011;21762;54.480;18.556;2022-10-15T11:10:09;45.08;;;24.60;;
35188;SDS011;21762;54.480;18.556;2022-10-15T11:12:51;47.67;;;26.60;;
35188;SDS011;21762;54.480;18.556;2022-10-15T11:15:35;46.90;;;26.88;;
35188;SDS011;21762;54.480;18.556;2022-10-15T11:18:16;45.75;;;28.13;;
35188;SDS011;21762;54.480;18.556;2022-10-15T11:20:57;50.83;;;27.48;;
35188;SDS011;21762;54.480;18.556;2022-10-15T11:23:37;48.83;;;28.02;;
35188;SDS011;21762;54.480;18.556;2022-10-15T11:26:15;47.42;;;28.08;;
35188;SDS011;21762;54.480;18.556;2022-10-15T11:28:53;49.70;;;30.05;;
35188;SDS011;21762;54.480;18.556;2022-10-15T11:31:27;49.03;;;29.45;;
35188;SDS011;21762;54.480;18.556;2022-10-15T11:34:12;49.17;;;27.50;;
35188;SDS011;21762;54.480;18.556;2022-10-15T11:36:52;46.17;;;28.58;;
35188;SDS011;21762;54.480;18.556;2022-10-15T11:39:29;50.33;;;29.17;;
35188;SDS011;21762;54.480;18.556;2022-10-15T11:42:07;53.08;;;29.02;;
35188;SDS011;21762;54.480;18.556;2022-10-15T11:44:47;48.85;;;29.75;;
35188;SDS011;21762;54.480;18.556;2022-10-15T11:47:26;47.25;;;28.88;;
35188;SDS011;21762;54.480;18.556;2022-10-15T11:50:07;46.33;;;28.38;;
35188;SDS011;21762;54.480;18.556;2022-10-15T11:55:40;44.67;;;26.83;;
35188;SDS011;21762;54.480;18.556;2022-10-15T11:58:20;43.65;;;25.75;;
35188;SDS011;21762;54.480;18.556;2022-10-15T12:00:57;47.00;;;25.52;;
35188;SDS011;21762;54.480;18.556;2022-10-15T12:03:27;45.03;;;25.10;;
35188;SDS011;21762;54.480;18.556;2022-10-15T12:05:58;42.17;;;24.48;;
35188;SDS011;21762;54.480;18.556;2022-10-15T12:08:31;38.50;;;22.90;;
35188;SDS011;21762;54.480;18.556;2022-10-15T12:11:03;41.13;;;24.15;;
35188;SDS011;21762;54.480;18.556;2022-10-15T12:13:39;42.53;;;23.83;;
35188;SDS011;21762;54.480;18.556;2022-10-15T12:16:11;39.33;;;22.35;;
35188;SDS011;21762;54.480;18.556;2022-10-15T12:18:50;40.80;;;21.85;;
35188;SDS011;21762;54.480;18.556;2022-10-15T12:21:30;40.53;;;23.08;;
35188;SDS011;21762;54.480;18.556;2022-10-15T12:24:02;42.97;;;23.92;;
35188;SDS011;21762;54.480;18.556;2022-10-15T12:26:36;39.42;;;24.38;;
35188;SDS011;21762;54.480;18.556;2022-10-15T12:29:05;46.10;;;26.08;;
35188;SDS011;21762;54.480;18.556;2022-10-15T12:31:46;40.60;;;23.70;;
35188;SDS011;21762;54.480;18.556;2022-10-15T12:34:29;37.58;;;22.95;;
35188;SDS011;21762;54.480;18.556;2022-10-15T12:37:02;40.67;;;24.30;;
35188;SDS011;21762;54.480;18.556;2022-10-15T12:39:33;38.33;;;22.10;;
35188;SDS011;21762;54.480;18.556;2022-10-15T12:42:20;41.55;;;24.40;;
35188;SDS011;21762;54.480;18.556;2022-10-15T12:44:49;41.67;;;25.17;;
35188;SDS011;21762;54.480;18.556;2022-10-15T12:50:16;44.33;;;24.77;;
35188;SDS011;21762;54.480;18.556;2022-10-15T12:52:53;41.03;;;24.92;;
35188;SDS011;21762;54.480;18.556;2022-10-15T12:55:31;39.88;;;23.92;;
35188;SDS011;21762;54.480;18.556;2022-10-15T13:00:30;40.10;;;23.60;;
35188;SDS011;21762;54.480;18.556;2022-10-15T13:03:19;41.78;;;23.92;;
35188;SDS011;21762;54.480;18.556;2022-10-15T13:05:52;41.97;;;23.73;;
35188;SDS011;21762;54.480;18.556;2022-10-15T13:08:35;39.10;;;23.33;;
35188;SDS011;21762;54.480;18.556;2022-10-15T13:11:15;37.67;;;23.00;;
35188;SDS011;21762;54.480;18.556;2022-10-15T13:13:46;36.58;;;20.40;;
35188;SDS011;21762;54.480;18.556;2022-10-15T13:16:16;32.83;;;18.40;;
35188;SDS011;21762;54.480;18.556;2022-10-15T13:18:47;31.95;;;18.05;;
35188;SDS011;21762;54.480;18.556;2022-10-15T13:21:16;31.70;;;19.08;;
35188;SDS011;21762;54.480;18.556;2022-10-15T13:23:44;29.05;;;17.35;;
35188;SDS011;21762;54.480;18.556;2022-10-15T13:26:18;28.05;;;16.45;;
35188;SDS011;21762;54.480;18.556;2022-10-15T13:28:48;31.08;;;17.30;;
35188;SDS011;21762;54.480;18.556;2022-10-15T13:31:19;29.85;;;18.27;;
35188;SDS011;21762;54.480;18.556;2022-10-15T13:33:50;27.17;;;17.35;;
35188;SDS011;21762;54.480;18.556;2022-10-15T13:36:20;27.98;;;16.13;;
35188;SDS011;21762;54.480;18.556;2022-10-15T13:38:50;24.77;;;15.80;;
35188;SDS011;21762;54.480;18.556;2022-10-15T13:41:23;27.10;;;16.95;;
35188;SDS011;21762;54.480;18.556;2022-10-15T13:43:52;28.75;;;16.90;;
35188;SDS011;21762;54.480;18.556;2022-10-15T13:48:56;27.67;;;15.90;;
35188;SDS011;21762;54.480;18.556;2022-10-15T13:51:31;31.90;;;16.85;;
35188;SDS011;21762;54.480;18.556;2022-10-15T13:54:01;26.35;;;16.58;;
35188;SDS011;21762;54.480;18.556;2022-10-15T13:56:31;24.90;;;15.05;;
35188;SDS011;21762;54.480;18.556;2022-10-15T13:58:59;24.30;;;16.27;;
35188;SDS011;21762;54.480;18.556;2022-10-15T14:01:29;24.85;;;15.93;;
35188;SDS011;21762;54.480;18.556;2022-10-15T14:03:59;23.85;;;15.63;;
35188;SDS011;21762;54.480;18.556;2022-10-15T14:06:28;27.63;;;16.90;;
35188;SDS011;21762;54.480;18.556;2022-10-15T14:09:01;27.58;;;16.10;;
35188;SDS011;21762;54.480;18.556;2022-10-15T14:11:44;25.65;;;16.98;;
35188;SDS011;21762;54.480;18.556;2022-10-15T14:14:26;24.85;;;16.88;;
35188;SDS011;21762;54.480;18.556;2022-10-15T14:16:55;30.88;;;18.23;;
35188;SDS011;21762;54.480;18.556;2022-10-15T14:19:24;28.88;;;17.63;;
35188;SDS011;21762;54.480;18.556;2022-10-15T14:21:55;28.40;;;18.23;;
35188;SDS011;21762;54.480;18.556;2022-10-15T14:24:27;29.52;;;17.65;;
35188;SDS011;21762;54.480;18.556;2022-10-15T14:27:06;28.45;;;17.23;;
35188;SDS011;21762;54.480;18.556;2022-10-15T14:29:38;30.17;;;17.75;;
35188;SDS011;21762;54.480;18.556;2022-10-15T14:32:17;32.45;;;18.65;;
35188;SDS011;21762;54.480;18.556;2022-10-15T14:34:51;31.52;;;18.50;;
35188;SDS011;21762;54.480;18.556;2022-10-15T14:37:26;30.90;;;18.98;;
35188;SDS011;21762;54.480;18.556;2022-10-15T14:40:07;32.60;;;19.17;;
35188;SDS011;21762;54.480;18.556;2022-10-15T14:42:42;30.40;;;18.17;;
35188;SDS011;21762;54.480;18.556;2022-10-15T14:45:12;32.15;;;18.40;;
35188;SDS011;21762;54.480;18.556;2022-10-15T14:47:46;32.95;;;19.13;;
35188;SDS011;21762;54.480;18.556;2022-10-15T14:50:16;30.85;;;19.98;;
35188;SDS011;21762;54.480;18.556;2022-10-15T14:52:47;32.53;;;19.35;;
35188;SDS011;21762;54.480;18.556;2022-10-15T14:55:22;31.30;;;19.45;;
35188;SDS011;21762;54.480;18.556;2022-10-15T14:57:56;31.85;;;20.67;;
35188;SDS011;21762;54.480;18.556;2022-10-15T15:00:25;36.30;;;20.95;;